Stonyford, California
Current Conditions -  °F | °C
As of 6:27 AM on Monday 26 Jan 2015 (Local Time) from KUKI Reporting Station
Broken Clouds Broken Clouds  
Wind Chill: 39°   Ceiling: 200
Heat Index: 39°   Visibility: 9mi
Dew Point: 37°   Wind: 0mph
Humidity: 93%   Direction: NA
Pressure: 30.06"   Gusts: NA
Location:  39.37°N, 122.55°W
Report Text: KUKI 261427Z AUTO 00000KT 9SM BKN002 04/03 A3006 RMK AO2 T00390028
Loading
Personal Weather Stations






























Interactive Weather Map New forecast layout! Learn more

10-Day Weather Forecast

Advertisements
Track Severe Weather on mobile